sensor_id;sensor_type;location;lat;lon;timestamp;pressure;altitude;pressure_sealevel;temperature;humidity
45467;BME280;31212;49.734;8.490;2023-07-29T02:00:57;99925.38;;;18.22;100.00
45467;BME280;31212;49.734;8.490;2023-07-29T02:03:24;99919.72;;;18.32;100.00
45467;BME280;31212;49.734;8.490;2023-07-29T02:15:02;99922.56;;;18.03;100.00
45467;BME280;31212;49.734;8.490;2023-07-29T04:39:17;99918.69;;;17.36;100.00
45467;BME280;31212;49.734;8.490;2023-07-29T04:41:43;99914.13;;;17.41;100.00
45467;BME280;31212;49.734;8.490;2023-07-29T04:44:10;99896.47;;;17.46;100.00
45467;BME280;31212;49.734;8.490;2023-07-29T04:46:36;99896.31;;;17.51;100.00
45467;BME280;31212;49.734;8.490;2023-07-29T04:49:04;99910.03;;;17.59;100.00
45467;BME280;31212;49.734;8.490;2023-07-29T04:51:31;99898.53;;;17.63;100.00
45467;BME280;31212;49.734;8.490;2023-07-29T04:53:58;99891.38;;;17.66;100.00
45467;BME280;31212;49.734;8.490;2023-07-29T04:56:26;99882.59;;;17.68;100.00
45467;BME280;31212;49.734;8.490;2023-07-29T04:58:52;99885.75;;;17.77;100.00
45467;BME280;31212;49.734;8.490;2023-07-29T05:01:19;99894.28;;;17.84;100.00
45467;BME280;31212;49.734;8.490;2023-07-29T05:03:46;99891.28;;;17.96;100.00
45467;BME280;31212;49.734;8.490;2023-07-29T05:06:12;99889.88;;;18.11;100.00
45467;BME280;31212;49.734;8.490;2023-07-29T05:08:39;99886.94;;;18.19;100.00
45467;BME280;31212;49.734;8.490;2023-07-29T05:11:05;99870.84;;;18.28;100.00
45467;BME280;31212;49.734;8.490;2023-07-29T05:13:33;99880.31;;;18.32;100.00
45467;BME280;31212;49.734;8.490;2023-07-29T05:15:59;99882.03;;;18.33;100.00
45467;BME280;31212;49.734;8.490;2023-07-29T05:18:26;99882.66;;;18.40;100.00
45467;BME280;31212;49.734;8.490;2023-07-29T05:20:53;99885.91;;;18.47;100.00
45467;BME280;31212;49.734;8.490;2023-07-29T05:23:19;99886.81;;;18.46;100.00
45467;BME280;31212;49.734;8.490;2023-07-29T05:25:46;99897.41;;;18.44;100.00
45467;BME280;31212;49.734;8.490;2023-07-29T05:28:12;99892.06;;;18.46;100.00
45467;BME280;31212;49.734;8.490;2023-07-29T05:30:40;99883.47;;;18.42;100.00
45467;BME280;31212;49.734;8.490;2023-07-29T05:33:07;99874.72;;;18.42;100.00
45467;BME280;31212;49.734;8.490;2023-07-29T05:35:34;99871.53;;;18.56;100.00
45467;BME280;31212;49.734;8.490;2023-07-29T05:38:00;99863.91;;;18.49;100.00
45467;BME280;31212;49.734;8.490;2023-07-29T05:40:28;99875.97;;;18.55;100.00
45467;BME280;31212;49.734;8.490;2023-07-29T05:42:55;99869.66;;;18.59;100.00
45467;BME280;31212;49.734;8.490;2023-07-29T05:45:23;99870.34;;;18.64;100.00
45467;BME280;31212;49.734;8.490;2023-07-29T05:47:51;99873.16;;;18.82;100.00
45467;BME280;31212;49.734;8.490;2023-07-29T05:50:19;99864.94;;;18.91;100.00
45467;BME280;31212;49.734;8.490;2023-07-29T05:52:46;99864.44;;;18.81;100.00
45467;BME280;31212;49.734;8.490;2023-07-29T05:55:13;99878.91;;;18.70;100.00
45467;BME280;31212;49.734;8.490;2023-07-29T05:57:39;99879.63;;;18.73;100.00
45467;BME280;31212;49.734;8.490;2023-07-29T06:00:08;99881.00;;;18.61;100.00
45467;BME280;31212;49.734;8.490;2023-07-29T06:02:41;99879.63;;;18.51;100.00
45467;BME280;31212;49.734;8.490;2023-07-29T06:05:11;99872.59;;;18.52;100.00
45467;BME280;31212;49.734;8.490;2023-07-29T06:07:37;99874.91;;;18.59;100.00
45467;BME280;31212;49.734;8.490;2023-07-29T06:10:09;99875.47;;;18.45;100.00
45467;BME280;31212;49.734;8.490;2023-07-29T06:12:37;99885.00;;;18.48;100.00
45467;BME280;31212;49.734;8.490;2023-07-29T06:15:04;99887.22;;;18.59;100.00
45467;BME280;31212;49.734;8.490;2023-07-29T06:17:31;99890.00;;;18.54;100.00
45467;BME280;31212;49.734;8.490;2023-07-29T06:19:57;99893.44;;;18.56;100.00
45467;BME280;31212;49.734;8.490;2023-07-29T06:22:26;99891.97;;;18.49;100.00
45467;BME280;31212;49.734;8.490;2023-07-29T06:24:52;99886.72;;;18.49;100.00
45467;BME280;31212;49.734;8.490;2023-07-29T06:27:19;99894.22;;;18.58;100.00
45467;BME280;31212;49.734;8.490;2023-07-29T06:29:45;99889.59;;;18.65;100.00
45467;BME280;31212;49.734;8.490;2023-07-29T06:32:12;99890.22;;;18.72;100.00
45467;BME280;31212;49.734;8.490;2023-07-29T06:34:38;99883.69;;;18.60;100.00
45467;BME280;31212;49.734;8.490;2023-07-29T06:37:05;99885.50;;;18.58;100.00
45467;BME280;31212;49.734;8.490;2023-07-29T06:39:33;99890.00;;;18.54;100.00
45467;BME280;31212;49.734;8.490;2023-07-29T06:41:59;99891.91;;;18.51;100.00
45467;BME280;31212;49.734;8.490;2023-07-29T06:44:27;99922.53;;;18.52;100.00
45467;BME280;31212;49.734;8.490;2023-07-29T06:46:53;99929.91;;;18.42;100.00
45467;BME280;31212;49.734;8.490;2023-07-29T06:49:20;99930.38;;;18.29;100.00
45467;BME280;31212;49.734;8.490;2023-07-29T06:51:46;99953.56;;;18.18;100.00
45467;BME280;31212;49.734;8.490;2023-07-29T06:54:13;99942.47;;;18.10;100.00
45467;BME280;31212;49.734;8.490;2023-07-29T06:56:40;99939.97;;;18.05;100.00
45467;BME280;31212;49.734;8.490;2023-07-29T06:59:07;99942.66;;;18.04;100.00
45467;BME280;31212;49.734;8.490;2023-07-29T07:01:33;99952.31;;;18.03;100.00
45467;BME280;31212;49.734;8.490;2023-07-29T07:04:00;99948.06;;;17.99;100.00
45467;BME280;31212;49.734;8.490;2023-07-29T07:06:27;99944.44;;;18.03;100.00
45467;BME280;31212;49.734;8.490;2023-07-29T07:08:53;99938.25;;;18.04;100.00
45467;BME280;31212;49.734;8.490;2023-07-29T07:11:19;99928.84;;;17.98;100.00
45467;BME280;31212;49.734;8.490;2023-07-29T07:13:47;99929.00;;;17.94;100.00
45467;BME280;31212;49.734;8.490;2023-07-29T07:16:14;99939.41;;;17.97;100.00
45467;BME280;31212;49.734;8.490;2023-07-29T07:18:40;99933.88;;;18.05;100.00
45467;BME280;31212;49.734;8.490;2023-07-29T07:21:07;99918.91;;;18.07;100.00
45467;BME280;31212;49.734;8.490;2023-07-29T07:23:33;99931.06;;;18.09;100.00
45467;BME280;31212;49.734;8.490;2023-07-29T07:26:00;99926.97;;;18.02;100.00
45467;BME280;31212;49.734;8.490;2023-07-29T07:28:26;99938.78;;;17.89;100.00
45467;BME280;31212;49.734;8.490;2023-07-29T07:30:54;99951.16;;;17.85;100.00
45467;BME280;31212;49.734;8.490;2023-07-29T07:33:21;99943.38;;;17.82;100.00
45467;BME280;31212;49.734;8.490;2023-07-29T07:35:48;99938.28;;;17.77;100.00
45467;BME280;31212;49.734;8.490;2023-07-29T07:38:14;99935.81;;;17.73;100.00
45467;BME280;31212;49.734;8.490;2023-07-29T07:40:41;99933.50;;;17.63;100.00
45467;BME280;31212;49.734;8.490;2023-07-29T07:43:07;99939.00;;;17.56;100.00
45467;BME280;31212;49.734;8.490;2023-07-29T07:45:33;99935.88;;;17.44;100.00
45467;BME280;31212;49.734;8.490;2023-07-29T07:48:01;99939.63;;;17.37;100.00
45467;BME280;31212;49.734;8.490;2023-07-29T07:50:29;99938.97;;;17.30;100.00
45467;BME280;31212;49.734;8.490;2023-07-29T07:52:55;99953.00;;;17.29;100.00
45467;BME280;31212;49.734;8.490;2023-07-29T07:55:22;99957.50;;;17.24;100.00
45467;BME280;31212;49.734;8.490;2023-07-29T07:57:48;99939.16;;;17.24;100.00
45467;BME280;31212;49.734;8.490;2023-07-29T08:00:15;99954.75;;;17.29;100.00
45467;BME280;31212;49.734;8.490;2023-07-29T08:02:43;99956.81;;;17.46;100.00
45467;BME280;31212;49.734;8.490;2023-07-29T08:05:11;99955.47;;;17.61;100.00
45467;BME280;31212;49.734;8.490;2023-07-29T08:07:38;99953.06;;;17.80;100.00
45467;BME280;31212;49.734;8.490;2023-07-29T08:10:05;99944.47;;;18.02;100.00
45467;BME280;31212;49.734;8.490;2023-07-29T08:12:32;99956.97;;;18.20;100.00
45467;BME280;31212;49.734;8.490;2023-07-29T08:14:59;99968.63;;;18.37;100.00
45467;BME280;31212;49.734;8.490;2023-07-29T08:17:25;99979.31;;;18.56;100.00
45467;BME280;31212;49.734;8.490;2023-07-29T08:19:51;99980.94;;;18.36;100.00
45467;BME280;31212;49.734;8.490;2023-07-29T08:22:19;99964.69;;;18.25;100.00
45467;BME280;31212;49.734;8.490;2023-07-29T08:24:46;99958.38;;;18.30;100.00
45467;BME280;31212;49.734;8.490;2023-07-29T08:27:12;99945.56;;;18.92;100.00
45467;BME280;31212;49.734;8.490;2023-07-29T08:29:39;99941.25;;;19.56;100.00
45467;BME280;31212;49.734;8.490;2023-07-29T08:32:05;99920.81;;;20.82;100.00
45467;BME280;31212;49.734;8.490;2023-07-29T08:34:32;99864.41;;;22.73;98.12
45467;BME280;31212;49.734;8.490;2023-07-29T08:36:58;99756.59;;;24.09;87.20
45467;BME280;31212;49.734;8.490;2023-07-29T08:39:26;99642.03;;;24.17;80.63
45467;BME280;31212;49.734;8.490;2023-07-29T08:41:57;99561.69;;;23.89;77.44
45467;BME280;31212;49.734;8.490;2023-07-29T08:44:30;99558.50;;;23.69;76.97
45467;BME280;31212;49.734;8.490;2023-07-29T08:47:01;99553.72;;;23.20;76.90
45467;BME280;31212;49.734;8.490;2023-07-29T08:49:28;99592.06;;;22.70;78.25
45467;BME280;31212;49.734;8.490;2023-07-29T08:51:57;99594.38;;;23.19;77.77
45467;BME280;31212;49.734;8.490;2023-07-29T08:54:23;99597.81;;;24.83;76.55
45467;BME280;31212;49.734;8.490;2023-07-29T08:56:52;99410.19;;;26.83;69.49
45467;BME280;31212;49.734;8.490;2023-07-29T08:59:19;99239.53;;;28.21;63.91
45467;BME280;31212;49.734;8.490;2023-07-29T09:01:46;99119.84;;;28.46;60.37
45467;BME280;31212;49.734;8.490;2023-07-29T09:04:13;99090.28;;;27.28;59.66
45467;BME280;31212;49.734;8.490;2023-07-29T09:06:41;99186.75;;;27.84;60.37
45467;BME280;31212;49.734;8.490;2023-07-29T09:09:09;99097.09;;;28.02;58.65
45467;BME280;31212;49.734;8.490;2023-07-29T09:11:36;99100.91;;;29.06;56.81
45467;BME280;31212;49.734;8.490;2023-07-29T09:14:04;99132.50;;;28.24;57.69
45467;BME280;31212;49.734;8.490;2023-07-29T09:16:30;99124.34;;;28.06;57.29
45467;BME280;31212;49.734;8.490;2023-07-29T09:19:00;99123.41;;;27.05;57.63
45467;BME280;31212;49.734;8.490;2023-07-29T09:21:28;99297.88;;;26.00;61.13
45467;BME280;31212;49.734;8.490;2023-07-29T09:23:55;99449.94;;;25.58;64.38
45467;BME280;31212;49.734;8.490;2023-07-29T09:26:22;99456.84;;;24.62;65.79
45467;BME280;31212;49.734;8.490;2023-07-29T09:28:52;99518.25;;;24.95;67.30
45467;BME280;31212;49.734;8.490;2023-07-29T09:31:23;99487.28;;;24.69;66.34
45467;BME280;31212;49.734;8.490;2023-07-29T09:33:50;99540.47;;;24.55;68.05
45467;BME280;31212;49.734;8.490;2023-07-29T09:36:21;99544.09;;;24.80;67.99
45467;BME280;31212;49.734;8.490;2023-07-29T09:38:48;99462.31;;;24.85;66.12
45467;BME280;31212;49.734;8.490;2023-07-29T09:41:18;99427.53;;;25.25;65.21
45467;BME280;31212;49.734;8.490;2023-07-29T09:43:44;99314.97;;;26.64;62.02
45467;BME280;31212;49.734;8.490;2023-07-29T09:46:11;99215.28;;;26.89;60.03
45467;BME280;31212;49.734;8.490;2023-07-29T09:48:39;99188.22;;;27.05;59.13
45467;BME280;31212;49.734;8.490;2023-07-29T09:51:10;99195.16;;;27.79;58.50
45467;BME280;31212;49.734;8.490;2023-07-29T09:53:42;99024.88;;;28.33;55.11
45467;BME280;31212;49.734;8.490;2023-07-29T09:56:09;98913.59;;;29.45;52.04
45467;BME280;31212;49.734;8.490;2023-07-29T09:58:36;98928.66;;;30.09;51.18
45467;BME280;31212;49.734;8.490;2023-07-29T10:01:03;98855.19;;;30.37;49.51
45467;BME280;31212;49.734;8.490;2023-07-29T10:03:31;98865.06;;;30.88;48.84
45467;BME280;31212;49.734;8.490;2023-07-29T10:06:01;98873.91;;;31.31;48.04
45467;BME280;31212;49.734;8.490;2023-07-29T10:08:29;98779.13;;;32.28;45.59
45467;BME280;31212;49.734;8.490;2023-07-29T10:10:57;98826.00;;;32.89;45.13
45467;BME280;31212;49.734;8.490;2023-07-29T10:13:25;98805.19;;;32.91;44.81
45467;BME280;31212;49.734;8.490;2023-07-29T10:15:53;98808.63;;;32.36;44.77
45467;BME280;31212;49.734;8.490;2023-07-29T10:18:20;98815.88;;;32.36;44.93
45467;BME280;31212;49.734;8.490;2023-07-29T10:20:48;98898.50;;;32.01;46.10
45467;BME280;31212;49.734;8.490;2023-07-29T10:23:18;98812.78;;;31.99;44.63
45467;BME280;31212;49.734;8.490;2023-07-29T10:25:47;98804.94;;;32.37;44.33
45467;BME280;31212;49.734;8.490;2023-07-29T10:28:17;98801.50;;;32.83;43.52
45467;BME280;31212;49.734;8.490;2023-07-29T10:30:46;98876.22;;;31.92;45.59
45467;BME280;31212;49.734;8.490;2023-07-29T10:33:13;98954.09;;;30.39;48.03
45467;BME280;31212;49.734;8.490;2023-07-29T10:35:40;99060.97;;;29.60;50.50
45467;BME280;31212;49.734;8.490;2023-07-29T10:38:08;99113.28;;;30.63;49.77
45467;BME280;31212;49.734;8.490;2023-07-29T10:40:46;99025.41;;;30.66;49.14
45467;BME280;31212;49.734;8.490;2023-07-29T10:43:19;98867.53;;;31.74;45.38
45467;BME280;31212;49.734;8.490;2023-07-29T10:45:46;98747.09;;;31.87;43.50
45467;BME280;31212;49.734;8.490;2023-07-29T10:48:13;98769.19;;;31.89;43.83
45467;BME280;31212;49.734;8.490;2023-07-29T10:51:28;98787.47;;;32.42;43.23
45467;BME280;31212;49.734;8.490;2023-07-29T10:54:01;98733.06;;;32.16;42.95
45467;BME280;31212;49.734;8.490;2023-07-29T10:56:30;98744.28;;;32.12;42.85
45467;BME280;31212;49.734;8.490;2023-07-29T10:58:59;98684.53;;;32.73;41.55
45467;BME280;31212;49.734;8.490;2023-07-29T11:01:29;98710.75;;;32.70;41.79
45467;BME280;31212;49.734;8.490;2023-07-29T11:04:22;98723.94;;;32.80;42.09
45467;BME280;31212;49.734;8.490;2023-07-29T11:07:01;98747.88;;;31.31;43.62
45467;BME280;31212;49.734;8.490;2023-07-29T11:09:56;98794.09;;;31.75;44.33
45467;BME280;31212;49.734;8.490;2023-07-29T11:12:42;98734.28;;;30.83;43.80
45467;BME280;31212;49.734;8.490;2023-07-29T11:15:15;98768.28;;;32.13;43.09
45467;BME280;31212;49.734;8.490;2023-07-29T11:17:43;98781.13;;;30.12;45.09
45467;BME280;31212;49.734;8.490;2023-07-29T11:20:11;98894.84;;;28.91;47.81
45467;BME280;31212;49.734;8.490;2023-07-29T11:22:39;99044.06;;;28.76;50.09
45467;BME280;31212;49.734;8.490;2023-07-29T11:25:07;99173.25;;;28.75;52.04
45467;BME280;31212;49.734;8.490;2023-07-29T11:27:34;98934.34;;;29.88;47.39
45467;BME280;31212;49.734;8.490;2023-07-29T11:30:04;98823.34;;;30.18;45.75
45467;BME280;31212;49.734;8.490;2023-07-29T11:32:32;98879.44;;;29.39;47.46
45467;BME280;31212;49.734;8.490;2023-07-29T11:35:02;98853.91;;;28.73;47.64
45467;BME280;31212;49.734;8.490;2023-07-29T11:37:29;98976.34;;;28.67;49.43
45467;BME280;31212;49.734;8.490;2023-07-29T11:39:55;98922.72;;;27.84;49.13
45467;BME280;31212;49.734;8.490;2023-07-29T11:42:21;98969.91;;;27.74;49.79
45467;BME280;31212;49.734;8.490;2023-07-29T11:44:48;98942.53;;;28.86;48.20
45467;BME280;31212;49.734;8.490;2023-07-29T11:47:16;98829.47;;;29.40;45.93
45467;BME280;31212;49.734;8.490;2023-07-29T11:49:42;98728.53;;;29.60;44.69
45467;BME280;31212;49.734;8.490;2023-07-29T11:52:10;98667.75;;;29.70;43.14
45467;BME280;31212;49.734;8.490;2023-07-29T11:54:38;98626.09;;;29.59;42.50
45467;BME280;31212;49.734;8.490;2023-07-29T11:57:06;98589.75;;;29.14;42.20
45467;BME280;31212;49.734;8.490;2023-07-29T11:59:33;98620.13;;;29.31;42.20
45467;BME280;31212;49.734;8.490;2023-07-29T12:02:00;98663.94;;;29.81;42.74
45467;BME280;31212;49.734;8.490;2023-07-29T12:04:28;98684.09;;;29.32;43.87
45467;BME280;31212;49.734;8.490;2023-07-29T12:06:56;98710.03;;;29.40;43.79
45467;BME280;31212;49.734;8.490;2023-07-29T12:09:23;98671.97;;;28.94;43.42
45467;BME280;31212;49.734;8.490;2023-07-29T12:11:49;98628.94;;;28.79;43.35
45467;BME280;31212;49.734;8.490;2023-07-29T12:14:17;98739.63;;;28.76;44.73
45467;BME280;31212;49.734;8.490;2023-07-29T12:16:44;98721.13;;;28.83;44.31
45467;BME280;31212;49.734;8.490;2023-07-29T12:19:12;98729.13;;;28.83;44.44
45467;BME280;31212;49.734;8.490;2023-07-29T12:21:41;98683.16;;;28.97;43.87
45467;BME280;31212;49.734;8.490;2023-07-29T12:24:08;98725.75;;;28.99;44.36
45467;BME280;31212;49.734;8.490;2023-07-29T12:26:35;98685.25;;;29.30;43.31
45467;BME280;31212;49.734;8.490;2023-07-29T12:29:11;98612.63;;;28.82;42.96
45467;BME280;31212;49.734;8.490;2023-07-29T12:31:38;98678.09;;;28.68;43.43
45467;BME280;31212;49.734;8.490;2023-07-29T12:34:04;98618.53;;;28.67;43.28
45467;BME280;31212;49.734;8.490;2023-07-29T12:36:42;98546.03;;;28.62;42.48
45467;BME280;31212;49.734;8.490;2023-07-29T12:39:16;98568.41;;;28.43;42.36
45467;BME280;31212;49.734;8.490;2023-07-29T12:41:42;98523.47;;;28.57;41.60
45467;BME280;31212;49.734;8.490;2023-07-29T12:44:09;98560.16;;;28.73;41.65
45467;BME280;31212;49.734;8.490;2023-07-29T12:46:35;98445.03;;;28.49;40.61
45467;BME280;31212;49.734;8.490;2023-07-29T12:49:02;98594.34;;;28.69;41.90
45467;BME280;31212;49.734;8.490;2023-07-29T12:51:28;98505.09;;;28.80;40.67
45467;BME280;31212;49.734;8.490;2023-07-29T12:53:56;98522.00;;;28.80;40.58
45467;BME280;31212;49.734;8.490;2023-07-29T12:56:23;98509.59;;;28.71;40.63
45467;BME280;31212;49.734;8.490;2023-07-29T12:58:49;98588.88;;;28.79;41.94
45467;BME280;31212;49.734;8.490;2023-07-29T13:01:16;98576.84;;;28.75;41.54
45467;BME280;31212;49.734;8.490;2023-07-29T13:03:43;98519.13;;;28.56;40.99
45467;BME280;31212;49.734;8.490;2023-07-29T13:06:09;98488.44;;;28.60;40.70
45467;BME280;31212;49.734;8.490;2023-07-29T13:08:36;98493.63;;;28.88;40.07
45467;BME280;31212;49.734;8.490;2023-07-29T13:11:04;98570.16;;;29.31;40.41
45467;BME280;31212;49.734;8.490;2023-07-29T13:13:31;98532.06;;;29.29;40.27
45467;BME280;31212;49.734;8.490;2023-07-29T13:15:58;98513.06;;;29.49;40.17
45467;BME280;31212;49.734;8.490;2023-07-29T13:18:24;98474.84;;;29.14;39.65
45467;BME280;31212;49.734;8.490;2023-07-29T13:20:51;98419.56;;;28.98;39.18
45467;BME280;31212;49.734;8.490;2023-07-29T13:23:17;98439.41;;;28.87;39.63
45467;BME280;31212;49.734;8.490;2023-07-29T13:25:44;98489.97;;;28.62;40.58
45467;BME280;31212;49.734;8.490;2023-07-29T13:28:12;98536.75;;;28.66;41.04
45467;BME280;31212;49.734;8.490;2023-07-29T13:30:39;98540.03;;;28.86;40.79
45467;BME280;31212;49.734;8.490;2023-07-29T13:33:06;98562.97;;;28.97;41.28
45467;BME280;31212;49.734;8.490;2023-07-29T13:35:33;98544.47;;;28.51;41.37
45467;BME280;31212;49.734;8.490;2023-07-29T13:37:59;98559.44;;;28.26;41.84
45467;BME280;31212;49.734;8.490;2023-07-29T13:40:25;98632.88;;;28.66;42.24
45467;BME280;31212;49.734;8.490;2023-07-29T13:42:53;98666.94;;;29.17;41.96
45467;BME280;31212;49.734;8.490;2023-07-29T13:45:21;98541.63;;;29.32;40.14
45467;BME280;31212;49.734;8.490;2023-07-29T13:47:48;98518.38;;;29.32;39.86
45467;BME280;31212;49.734;8.490;2023-07-29T13:50:15;98485.69;;;29.55;39.74
45467;BME280;31212;49.734;8.490;2023-07-29T13:52:42;98522.31;;;29.63;39.87
45467;BME280;31212;49.734;8.490;2023-07-29T13:55:09;98466.66;;;29.66;39.24
45467;BME280;31212;49.734;8.490;2023-07-29T13:57:37;98518.16;;;29.85;39.64
45467;BME280;31212;49.734;8.490;2023-07-29T14:00:05;98498.97;;;29.98;38.96
45467;BME280;31212;49.734;8.490;2023-07-29T14:02:38;98457.97;;;30.47;38.00
45467;BME280;31212;49.734;8.490;2023-07-29T14:05:04;98419.50;;;30.15;38.04
45467;BME280;31212;49.734;8.490;2023-07-29T14:07:32;98444.13;;;29.85;38.56
45467;BME280;31212;49.734;8.490;2023-07-29T14:09:58;98421.06;;;29.93;38.14
45467;BME280;31212;49.734;8.490;2023-07-29T14:12:25;98426.75;;;29.06;39.05
45467;BME280;31212;49.734;8.490;2023-07-29T14:14:51;98503.59;;;28.51;40.56
45467;BME280;31212;49.734;8.490;2023-07-29T14:17:18;98509.16;;;27.95;41.08
45467;BME280;31212;49.734;8.490;2023-07-29T14:19:46;98603.19;;;27.97;42.49
45467;BME280;31212;49.734;8.490;2023-07-29T14:22:12;98635.31;;;27.78;42.86
45467;BME280;31212;49.734;8.490;2023-07-29T14:24:39;98655.41;;;27.34;43.67
45467;BME280;31212;49.734;8.490;2023-07-29T14:27:05;98644.94;;;27.13;43.59
45467;BME280;31212;49.734;8.490;2023-07-29T14:29:32;98754.53;;;27.48;44.59
45467;BME280;31212;49.734;8.490;2023-07-29T14:31:58;98672.97;;;28.20;42.63
45467;BME280;31212;49.734;8.490;2023-07-29T14:34:25;98704.41;;;28.81;42.32
45467;BME280;31212;49.734;8.490;2023-07-29T14:36:53;98596.94;;;29.13;40.97
45467;BME280;31212;49.734;8.490;2023-07-29T14:39:19;98663.00;;;29.56;40.92
45467;BME280;31212;49.734;8.490;2023-07-29T14:41:45;98634.66;;;29.36;41.42
45467;BME280;31212;49.734;8.490;2023-07-29T14:44:12;98649.34;;;29.06;41.35
45467;BME280;31212;49.734;8.490;2023-07-29T14:46:39;98708.28;;;29.57;41.91
45467;BME280;31212;49.734;8.490;2023-07-29T14:49:05;98699.09;;;29.60;42.10
45467;BME280;31212;49.734;8.490;2023-07-29T14:51:32;98649.84;;;29.10;41.64
45467;BME280;31212;49.734;8.490;2023-07-29T14:53:59;98652.06;;;29.14;41.89
45467;BME280;31212;49.734;8.490;2023-07-29T14:56:26;98679.28;;;28.65;42.78
45467;BME280;31212;49.734;8.490;2023-07-29T14:58:52;98670.06;;;27.86;43.44
45467;BME280;31212;49.734;8.490;2023-07-29T15:01:19;98749.72;;;27.61;44.77
45467;BME280;31212;49.734;8.490;2023-07-29T15:03:45;98772.53;;;27.16;45.53
45467;BME280;31212;49.734;8.490;2023-07-29T15:06:12;98843.44;;;26.78;46.71
45467;BME280;31212;49.734;8.490;2023-07-29T15:08:38;98850.19;;;27.31;46.12
45467;BME280;31212;49.734;8.490;2023-07-29T15:11:06;98841.63;;;28.24;44.80
45467;BME280;31212;49.734;8.490;2023-07-29T15:13:32;98724.16;;;29.06;42.43
45467;BME280;31212;49.734;8.490;2023-07-29T15:15:59;98691.88;;;29.44;41.61
45467;BME280;31212;49.734;8.490;2023-07-29T15:18:25;98661.84;;;29.58;41.03
45467;BME280;31212;49.734;8.490;2023-07-29T15:20:55;98645.56;;;29.43;41.62
45467;BME280;31212;49.734;8.490;2023-07-29T15:23:22;98626.00;;;28.64;42.04
45467;BME280;31212;49.734;8.490;2023-07-29T15:25:48;98680.53;;;28.43;42.79
45467;BME280;31212;49.734;8.490;2023-07-29T15:28:16;98701.28;;;28.85;42.59
45467;BME280;31212;49.734;8.490;2023-07-29T15:30:43;98647.13;;;29.01;41.56
45467;BME280;31212;49.734;8.490;2023-07-29T15:33:09;98692.66;;;28.92;42.60
45467;BME280;31212;49.734;8.490;2023-07-29T15:35:37;98698.31;;;28.52;42.92
45467;BME280;31212;49.734;8.490;2023-07-29T15:38:04;98715.94;;;27.90;43.68
45467;BME280;31212;49.734;8.490;2023-07-29T15:40:30;98729.25;;;27.99;43.84
45467;BME280;31212;49.734;8.490;2023-07-29T15:42:57;98721.72;;;27.85;43.91
45467;BME280;31212;49.734;8.490;2023-07-29T15:45:25;98783.63;;;27.79;44.93
45467;BME280;31212;49.734;8.490;2023-07-29T15:47:51;98780.44;;;27.75;44.94
45467;BME280;31212;49.734;8.490;2023-07-29T15:50:18;98814.22;;;27.84;45.36
45467;BME280;31212;49.734;8.490;2023-07-29T15:52:44;98827.38;;;27.96;45.36
45467;BME280;31212;49.734;8.490;2023-07-29T15:55:11;98798.44;;;28.11;44.85
45467;BME280;31212;49.734;8.490;2023-07-29T15:57:38;98746.56;;;27.85;44.42
45467;BME280;31212;49.734;8.490;2023-07-29T16:00:05;98795.38;;;27.96;44.91
45467;BME280;31212;49.734;8.490;2023-07-29T16:02:40;98836.59;;;28.11;45.19
45467;BME280;31212;49.734;8.490;2023-07-29T16:05:07;98804.44;;;27.75;45.36
45467;BME280;31212;49.734;8.490;2023-07-29T16:07:33;98799.56;;;27.41;45.84
45467;BME280;31212;49.734;8.490;2023-07-29T16:10:00;98901.38;;;27.06;47.23
45467;BME280;31212;49.734;8.490;2023-07-29T16:12:27;98844.88;;;26.51;47.03
45467;BME280;31212;49.734;8.490;2023-07-29T16:14:54;98903.63;;;26.29;48.12
45467;BME280;31212;49.734;8.490;2023-07-29T16:17:20;98946.28;;;26.48;48.57
45467;BME280;31212;49.734;8.490;2023-07-29T16:19:56;98880.84;;;26.77;47.45
45467;BME280;31212;49.734;8.490;2023-07-29T16:22:22;98904.50;;;26.70;47.92
45467;BME280;31212;49.734;8.490;2023-07-29T16:24:49;98901.81;;;26.70;47.65
45467;BME280;31212;49.734;8.490;2023-07-29T16:27:16;98892.47;;;26.76;47.68
45467;BME280;31212;49.734;8.490;2023-07-29T16:29:43;98859.91;;;26.62;47.32
45467;BME280;31212;49.734;8.490;2023-07-29T16:32:09;98864.31;;;26.42;47.51
45467;BME280;31212;49.734;8.490;2023-07-29T16:34:36;98871.13;;;26.25;47.50
45467;BME280;31212;49.734;8.490;2023-07-29T16:37:04;98901.34;;;26.14;48.01
45467;BME280;31212;49.734;8.490;2023-07-29T16:39:31;98883.81;;;26.12;47.65
45467;BME280;31212;49.734;8.490;2023-07-29T16:41:58;98872.25;;;26.23;47.38
45467;BME280;31212;49.734;8.490;2023-07-29T16:44:24;98844.66;;;26.24;46.90
45467;BME280;31212;49.734;8.490;2023-07-29T16:46:51;98794.00;;;26.35;46.31
45467;BME280;31212;49.734;8.490;2023-07-29T16:49:17;98791.38;;;26.55;46.11
45467;BME280;31212;49.734;8.490;2023-07-29T16:51:45;98817.31;;;26.52;46.27
45467;BME280;31212;49.734;8.490;2023-07-29T16:54:13;98851.91;;;26.52;46.90
45467;BME280;31212;49.734;8.490;2023-07-29T16:56:43;98835.34;;;26.49;46.71
45467;BME280;31212;49.734;8.490;2023-07-29T16:59:09;98822.59;;;26.43;46.63
45467;BME280;31212;49.734;8.490;2023-07-29T17:01:36;98848.19;;;26.34;46.76
45467;BME280;31212;49.734;8.490;2023-07-29T17:04:02;98875.56;;;26.15;47.33
45467;BME280;31212;49.734;8.490;2023-07-29T17:06:29;98849.28;;;26.00;47.23
45467;BME280;31212;49.734;8.490;2023-07-29T17:08:55;98864.69;;;25.76;47.71
45467;BME280;31212;49.734;8.490;2023-07-29T17:11:23;98879.56;;;25.67;47.77
45467;BME280;31212;49.734;8.490;2023-07-29T17:13:49;98887.75;;;25.54;48.03
45467;BME280;31212;49.734;8.490;2023-07-29T17:16:16;98925.09;;;25.52;48.31
45467;BME280;31212;49.734;8.490;2023-07-29T17:18:42;98937.63;;;25.62;48.89
45467;BME280;31212;49.734;8.490;2023-07-29T17:21:09;98943.16;;;25.59;48.94
45467;BME280;31212;49.734;8.490;2023-07-29T17:23:35;98936.75;;;25.61;48.69
45467;BME280;31212;49.734;8.490;2023-07-29T17:26:02;98938.94;;;25.56;48.72
45467;BME280;31212;49.734;8.490;2023-07-29T17:28:30;98952.22;;;25.56;48.71
45467;BME280;31212;49.734;8.490;2023-07-29T17:30:57;98984.34;;;25.64;49.35